sensor_id;sensor_type;location;lat;lon;timestamp;P1;durP1;ratioP1;P2;durP2;ratioP2
3299;SDS011;1662;49.310;8.134;2023-02-08T00:02:15;13.47;;;11.93;;
3299;SDS011;1662;49.310;8.134;2023-02-08T00:04:41;14.02;;;12.45;;
3299;SDS011;1662;49.310;8.134;2023-02-08T00:07:07;15.67;;;11.80;;
3299;SDS011;1662;49.310;8.134;2023-02-08T00:09:32;17.60;;;12.33;;
3299;SDS011;1662;49.310;8.134;2023-02-08T00:11:58;15.20;;;13.60;;
3299;SDS011;1662;49.310;8.134;2023-02-08T00:14:24;16.00;;;12.90;;
3299;SDS011;1662;49.310;8.134;2023-02-08T00:16:49;15.77;;;12.50;;
3299;SDS011;1662;49.310;8.134;2023-02-08T00:19:17;13.63;;;11.47;;
3299;SDS011;1662;49.310;8.134;2023-02-08T00:21:43;13.68;;;12.38;;
3299;SDS011;1662;49.310;8.134;2023-02-08T00:24:11;15.60;;;12.75;;
3299;SDS011;1662;49.310;8.134;2023-02-08T00:26:36;15.67;;;12.80;;
3299;SDS011;1662;49.310;8.134;2023-02-08T00:29:02;12.80;;;11.33;;
3299;SDS011;1662;49.310;8.134;2023-02-08T00:31:28;16.02;;;12.27;;
3299;SDS011;1662;49.310;8.134;2023-02-08T00:33:53;14.60;;;12.47;;
3299;SDS011;1662;49.310;8.134;2023-02-08T00:36:19;17.93;;;12.00;;
3299;SDS011;1662;49.310;8.134;2023-02-08T00:38:45;16.47;;;12.80;;
3299;SDS011;1662;49.310;8.134;2023-02-08T00:41:10;17.80;;;12.80;;
3299;SDS011;1662;49.310;8.134;2023-02-08T00:43:36;16.27;;;12.27;;
3299;SDS011;1662;49.310;8.134;2023-02-08T00:46:02;14.40;;;11.37;;
3299;SDS011;1662;49.310;8.134;2023-02-08T00:48:27;16.40;;;12.33;;
3299;SDS011;1662;49.310;8.134;2023-02-08T00:51:03;20.60;;;13.30;;
3299;SDS011;1662;49.310;8.134;2023-02-08T00:53:34;17.52;;;12.48;;
3299;SDS011;1662;49.310;8.134;2023-02-08T00:56:01;17.60;;;11.77;;
3299;SDS011;1662;49.310;8.134;2023-02-08T00:58:26;18.63;;;12.73;;
3299;SDS011;1662;49.310;8.134;2023-02-08T01:00:52;14.50;;;12.23;;
3299;SDS011;1662;49.310;8.134;2023-02-08T01:03:19;18.40;;;12.67;;
3299;SDS011;1662;49.310;8.134;2023-02-08T01:05:45;18.35;;;12.48;;
3299;SDS011;1662;49.310;8.134;2023-02-08T01:08:11;17.77;;;12.37;;
3299;SDS011;1662;49.310;8.134;2023-02-08T01:10:36;16.63;;;12.33;;
3299;SDS011;1662;49.310;8.134;2023-02-08T01:13:02;15.13;;;12.80;;
3299;SDS011;1662;49.310;8.134;2023-02-08T01:15:28;17.90;;;11.27;;
3299;SDS011;1662;49.310;8.134;2023-02-08T01:17:53;13.30;;;11.20;;
3299;SDS011;1662;49.310;8.134;2023-02-08T01:20:19;14.20;;;11.38;;
3299;SDS011;1662;49.310;8.134;2023-02-08T01:22:46;13.20;;;11.83;;
3299;SDS011;1662;49.310;8.134;2023-02-08T01:25:11;17.03;;;11.57;;
3299;SDS011;1662;49.310;8.134;2023-02-08T01:27:37;14.17;;;12.30;;
3299;SDS011;1662;49.310;8.134;2023-02-08T01:30:03;16.97;;;12.70;;
3299;SDS011;1662;49.310;8.134;2023-02-08T01:32:31;16.90;;;11.80;;
3299;SDS011;1662;49.310;8.134;2023-02-08T01:34:56;15.70;;;11.90;;
3299;SDS011;1662;49.310;8.134;2023-02-08T01:37:22;13.90;;;11.37;;
3299;SDS011;1662;49.310;8.134;2023-02-08T01:39:48;12.50;;;11.03;;
3299;SDS011;1662;49.310;8.134;2023-02-08T01:42:14;15.73;;;12.20;;
3299;SDS011;1662;49.310;8.134;2023-02-08T01:47:46;14.45;;;12.05;;
3299;SDS011;1662;49.310;8.134;2023-02-08T01:50:16;12.75;;;11.20;;
3299;SDS011;1662;49.310;8.134;2023-02-08T01:52:46;16.25;;;12.35;;
3299;SDS011;1662;49.310;8.134;2023-02-08T01:55:16;15.68;;;12.02;;
3299;SDS011;1662;49.310;8.134;2023-02-08T01:57:53;14.13;;;11.15;;
3299;SDS011;1662;49.310;8.134;2023-02-08T02:00:22;12.82;;;11.43;;
3299;SDS011;1662;49.310;8.134;2023-02-08T02:02:49;13.88;;;12.05;;
3299;SDS011;1662;49.310;8.134;2023-02-08T02:05:21;18.10;;;11.23;;
3299;SDS011;1662;49.310;8.134;2023-02-08T02:07:50;15.02;;;11.18;;
3299;SDS011;1662;49.310;8.134;2023-02-08T02:10:30;15.05;;;11.80;;
3299;SDS011;1662;49.310;8.134;2023-02-08T02:13:00;13.23;;;10.68;;
3299;SDS011;1662;49.310;8.134;2023-02-08T02:15:34;14.35;;;11.00;;
3299;SDS011;1662;49.310;8.134;2023-02-08T02:18:00;16.30;;;12.07;;
3299;SDS011;1662;49.310;8.134;2023-02-08T02:20:41;12.73;;;10.20;;
3299;SDS011;1662;49.310;8.134;2023-02-08T02:31:45;14.80;;;11.02;;
3299;SDS011;1662;49.310;8.134;2023-02-08T02:34:23;14.70;;;11.23;;
3299;SDS011;1662;49.310;8.134;2023-02-08T02:37:35;13.88;;;11.43;;
3299;SDS011;1662;49.310;8.134;2023-02-08T02:40:05;14.43;;;11.18;;
3299;SDS011;1662;49.310;8.134;2023-02-08T02:45:40;12.73;;;10.55;;
3299;SDS011;1662;49.310;8.134;2023-02-08T02:51:21;14.07;;;11.55;;
3299;SDS011;1662;49.310;8.134;2023-02-08T02:53:54;14.50;;;10.98;;
3299;SDS011;1662;49.310;8.134;2023-02-08T02:56:28;14.27;;;10.43;;
3299;SDS011;1662;49.310;8.134;2023-02-08T02:58:59;12.90;;;11.38;;
3299;SDS011;1662;49.310;8.134;2023-02-08T03:01:28;13.45;;;11.48;;
3299;SDS011;1662;49.310;8.134;2023-02-08T03:03:54;13.50;;;11.33;;
3299;SDS011;1662;49.310;8.134;2023-02-08T03:06:34;15.98;;;11.77;;
3299;SDS011;1662;49.310;8.134;2023-02-08T03:21:01;14.45;;;10.55;;
3299;SDS011;1662;49.310;8.134;2023-02-08T03:31:40;15.20;;;11.10;;
3299;SDS011;1662;49.310;8.134;2023-02-08T03:34:22;15.98;;;10.80;;
3299;SDS011;1662;49.310;8.134;2023-02-08T03:37:25;18.60;;;11.23;;
3299;SDS011;1662;49.310;8.134;2023-02-08T03:40:04;15.95;;;10.80;;
3299;SDS011;1662;49.310;8.134;2023-02-08T03:42:52;16.55;;;13.93;;
3299;SDS011;1662;49.310;8.134;2023-02-08T03:45:29;14.48;;;11.85;;
3299;SDS011;1662;49.310;8.134;2023-02-08T03:48:07;17.80;;;12.55;;
3299;SDS011;1662;49.310;8.134;2023-02-08T03:50:36;12.77;;;10.93;;
3299;SDS011;1662;49.310;8.134;2023-02-08T03:53:04;17.30;;;13.07;;
3299;SDS011;1662;49.310;8.134;2023-02-08T03:55:32;13.73;;;11.85;;
3299;SDS011;1662;49.310;8.134;2023-02-08T03:58:10;15.45;;;11.38;;
3299;SDS011;1662;49.310;8.134;2023-02-08T04:00:59;18.30;;;11.95;;
3299;SDS011;1662;49.310;8.134;2023-02-08T04:03:29;18.13;;;11.88;;
3299;SDS011;1662;49.310;8.134;2023-02-08T04:05:57;15.73;;;11.48;;
3299;SDS011;1662;49.310;8.134;2023-02-08T04:08:23;17.03;;;11.87;;
3299;SDS011;1662;49.310;8.134;2023-02-08T04:10:52;13.25;;;11.18;;
3299;SDS011;1662;49.310;8.134;2023-02-08T04:13:17;16.10;;;12.87;;
3299;SDS011;1662;49.310;8.134;2023-02-08T04:15:43;13.97;;;11.73;;
3299;SDS011;1662;49.310;8.134;2023-02-08T04:18:09;17.67;;;12.73;;
3299;SDS011;1662;49.310;8.134;2023-02-08T04:20:34;14.10;;;11.97;;
3299;SDS011;1662;49.310;8.134;2023-02-08T04:23:00;16.83;;;12.90;;
3299;SDS011;1662;49.310;8.134;2023-02-08T04:25:25;15.77;;;12.03;;
3299;SDS011;1662;49.310;8.134;2023-02-08T04:27:53;16.58;;;12.55;;
3299;SDS011;1662;49.310;8.134;2023-02-08T04:30:19;14.73;;;11.90;;
3299;SDS011;1662;49.310;8.134;2023-02-08T04:32:45;13.70;;;11.10;;
3299;SDS011;1662;49.310;8.134;2023-02-08T04:35:10;14.70;;;11.80;;
3299;SDS011;1662;49.310;8.134;2023-02-08T04:37:36;14.37;;;11.83;;
3299;SDS011;1662;49.310;8.134;2023-02-08T04:40:04;14.90;;;11.60;;
3299;SDS011;1662;49.310;8.134;2023-02-08T04:42:30;14.33;;;11.13;;
3299;SDS011;1662;49.310;8.134;2023-02-08T04:44:55;17.17;;;11.60;;
3299;SDS011;1662;49.310;8.134;2023-02-08T04:47:21;15.40;;;12.17;;
3299;SDS011;1662;49.310;8.134;2023-02-08T04:49:47;15.97;;;11.73;;
3299;SDS011;1662;49.310;8.134;2023-02-08T04:52:14;14.80;;;10.50;;
3299;SDS011;1662;49.310;8.134;2023-02-08T04:54:40;12.97;;;11.57;;
3299;SDS011;1662;49.310;8.134;2023-02-08T04:57:06;14.40;;;11.10;;
3299;SDS011;1662;49.310;8.134;2023-02-08T04:59:32;14.88;;;11.00;;
3299;SDS011;1662;49.310;8.134;2023-02-08T05:01:58;13.37;;;10.37;;
3299;SDS011;1662;49.310;8.134;2023-02-08T05:04:24;15.07;;;9.90;;
3299;SDS011;1662;49.310;8.134;2023-02-08T05:06:49;14.80;;;10.40;;
3299;SDS011;1662;49.310;8.134;2023-02-08T05:09:15;14.60;;;10.87;;
3299;SDS011;1662;49.310;8.134;2023-02-08T05:11:41;14.93;;;10.50;;
3299;SDS011;1662;49.310;8.134;2023-02-08T05:14:06;12.20;;;9.80;;
3299;SDS011;1662;49.310;8.134;2023-02-08T05:16:32;14.13;;;10.03;;
3299;SDS011;1662;49.310;8.134;2023-02-08T05:18:57;10.67;;;9.67;;
3299;SDS011;1662;49.310;8.134;2023-02-08T05:21:23;11.50;;;10.00;;
3299;SDS011;1662;49.310;8.134;2023-02-08T05:23:49;10.87;;;9.03;;
3299;SDS011;1662;49.310;8.134;2023-02-08T05:26:15;11.23;;;10.02;;
3299;SDS011;1662;49.310;8.134;2023-02-08T05:28:41;12.45;;;9.63;;
3299;SDS011;1662;49.310;8.134;2023-02-08T05:31:14;15.80;;;11.20;;
3299;SDS011;1662;49.310;8.134;2023-02-08T05:33:49;12.15;;;10.77;;
3299;SDS011;1662;49.310;8.134;2023-02-08T05:36:16;12.38;;;9.85;;
3299;SDS011;1662;49.310;8.134;2023-02-08T05:38:42;15.18;;;10.40;;
3299;SDS011;1662;49.310;8.134;2023-02-08T05:41:08;15.00;;;11.10;;
3299;SDS011;1662;49.310;8.134;2023-02-08T05:43:34;15.90;;;9.80;;
3299;SDS011;1662;49.310;8.134;2023-02-08T05:45:59;14.70;;;10.70;;
3299;SDS011;1662;49.310;8.134;2023-02-08T05:48:25;12.03;;;9.80;;
3299;SDS011;1662;49.310;8.134;2023-02-08T05:50:51;13.17;;;10.80;;
3299;SDS011;1662;49.310;8.134;2023-02-08T05:53:18;17.20;;;11.98;;
3299;SDS011;1662;49.310;8.134;2023-02-08T05:55:44;14.20;;;9.40;;
3299;SDS011;1662;49.310;8.134;2023-02-08T05:58:10;12.25;;;9.95;;
3299;SDS011;1662;49.310;8.134;2023-02-08T06:00:37;13.05;;;9.90;;
3299;SDS011;1662;49.310;8.134;2023-02-08T06:03:02;11.77;;;8.73;;
3299;SDS011;1662;49.310;8.134;2023-02-08T06:05:28;16.83;;;10.53;;
3299;SDS011;1662;49.310;8.134;2023-02-08T06:07:54;13.80;;;9.67;;
3299;SDS011;1662;49.310;8.134;2023-02-08T06:10:19;11.50;;;9.77;;
3299;SDS011;1662;49.310;8.134;2023-02-08T06:12:45;14.70;;;10.63;;
3299;SDS011;1662;49.310;8.134;2023-02-08T06:15:10;12.77;;;10.07;;
3299;SDS011;1662;49.310;8.134;2023-02-08T06:17:36;12.13;;;10.30;;
3299;SDS011;1662;49.310;8.134;2023-02-08T06:20:02;15.07;;;11.30;;
3299;SDS011;1662;49.310;8.134;2023-02-08T06:22:28;16.08;;;10.70;;
3299;SDS011;1662;49.310;8.134;2023-02-08T06:24:53;11.20;;;9.73;;
3299;SDS011;1662;49.310;8.134;2023-02-08T06:27:19;16.50;;;11.17;;
3299;SDS011;1662;49.310;8.134;2023-02-08T06:29:45;14.77;;;10.93;;
3299;SDS011;1662;49.310;8.134;2023-02-08T06:32:12;14.43;;;10.27;;
3299;SDS011;1662;49.310;8.134;2023-02-08T06:34:38;14.13;;;11.30;;
3299;SDS011;1662;49.310;8.134;2023-02-08T06:37:03;16.77;;;11.27;;
3299;SDS011;1662;49.310;8.134;2023-02-08T06:39:29;12.93;;;10.40;;
3299;SDS011;1662;49.310;8.134;2023-02-08T06:41:55;15.07;;;11.90;;
3299;SDS011;1662;49.310;8.134;2023-02-08T06:44:21;15.18;;;11.75;;
3299;SDS011;1662;49.310;8.134;2023-02-08T06:46:47;20.00;;;12.37;;
3299;SDS011;1662;49.310;8.134;2023-02-08T06:49:13;16.73;;;12.10;;
3299;SDS011;1662;49.310;8.134;2023-02-08T06:51:39;16.67;;;12.17;;
3299;SDS011;1662;49.310;8.134;2023-02-08T06:54:04;20.93;;;11.57;;
3299;SDS011;1662;49.310;8.134;2023-02-08T06:56:30;16.50;;;12.10;;
3299;SDS011;1662;49.310;8.134;2023-02-08T06:58:56;14.93;;;11.50;;
3299;SDS011;1662;49.310;8.134;2023-02-08T07:01:22;14.00;;;11.27;;
3299;SDS011;1662;49.310;8.134;2023-02-08T07:03:47;13.67;;;10.40;;
3299;SDS011;1662;49.310;8.134;2023-02-08T07:06:16;14.57;;;10.15;;
3299;SDS011;1662;49.310;8.134;2023-02-08T07:08:44;15.77;;;10.70;;
3299;SDS011;1662;49.310;8.134;2023-02-08T07:11:11;12.75;;;9.35;;
3299;SDS011;1662;49.310;8.134;2023-02-08T07:13:42;14.18;;;10.07;;
3299;SDS011;1662;49.310;8.134;2023-02-08T07:16:14;13.10;;;11.00;;
3299;SDS011;1662;49.310;8.134;2023-02-08T07:18:40;13.25;;;9.98;;
3299;SDS011;1662;49.310;8.134;2023-02-08T07:21:06;15.70;;;11.13;;
3299;SDS011;1662;49.310;8.134;2023-02-08T07:23:32;12.07;;;9.98;;
3299;SDS011;1662;49.310;8.134;2023-02-08T07:28:27;21.27;;;14.05;;
3299;SDS011;1662;49.310;8.134;2023-02-08T07:30:53;20.85;;;13.15;;
3299;SDS011;1662;49.310;8.134;2023-02-08T07:33:19;19.97;;;12.27;;
3299;SDS011;1662;49.310;8.134;2023-02-08T07:35:45;16.00;;;13.48;;
3299;SDS011;1662;49.310;8.134;2023-02-08T07:38:11;20.07;;;13.70;;
3299;SDS011;1662;49.310;8.134;2023-02-08T07:40:39;17.73;;;13.02;;
3299;SDS011;1662;49.310;8.134;2023-02-08T07:43:04;17.73;;;12.63;;
3299;SDS011;1662;49.310;8.134;2023-02-08T07:45:30;21.80;;;15.30;;
3299;SDS011;1662;49.310;8.134;2023-02-08T07:47:56;21.57;;;15.00;;
3299;SDS011;1662;49.310;8.134;2023-02-08T07:50:21;17.33;;;13.83;;
3299;SDS011;1662;49.310;8.134;2023-02-08T07:52:47;21.37;;;12.23;;
3299;SDS011;1662;49.310;8.134;2023-02-08T07:55:13;16.87;;;12.53;;
3299;SDS011;1662;49.310;8.134;2023-02-08T07:57:46;16.92;;;12.23;;
3299;SDS011;1662;49.310;8.134;2023-02-08T08:00:13;16.73;;;12.63;;
3299;SDS011;1662;49.310;8.134;2023-02-08T08:02:41;15.40;;;11.98;;
3299;SDS011;1662;49.310;8.134;2023-02-08T08:05:07;28.25;;;16.30;;
3299;SDS011;1662;49.310;8.134;2023-02-08T08:07:33;22.95;;;15.05;;
3299;SDS011;1662;49.310;8.134;2023-02-08T08:09:59;16.38;;;12.85;;
3299;SDS011;1662;49.310;8.134;2023-02-08T08:12:25;15.83;;;12.90;;
3299;SDS011;1662;49.310;8.134;2023-02-08T08:14:50;16.33;;;12.20;;
3299;SDS011;1662;49.310;8.134;2023-02-08T08:17:16;16.43;;;12.00;;
3299;SDS011;1662;49.310;8.134;2023-02-08T08:19:42;14.57;;;12.85;;
3299;SDS011;1662;49.310;8.134;2023-02-08T08:22:08;14.33;;;11.60;;
3299;SDS011;1662;49.310;8.134;2023-02-08T08:24:34;17.83;;;11.15;;
3299;SDS011;1662;49.310;8.134;2023-02-08T08:27:00;19.70;;;14.30;;
3299;SDS011;1662;49.310;8.134;2023-02-08T08:29:27;17.17;;;12.55;;
3299;SDS011;1662;49.310;8.134;2023-02-08T08:31:56;19.30;;;12.90;;
3299;SDS011;1662;49.310;8.134;2023-02-08T08:34:21;12.70;;;11.43;;
3299;SDS011;1662;49.310;8.134;2023-02-08T08:36:53;19.58;;;12.98;;
3299;SDS011;1662;49.310;8.134;2023-02-08T08:39:19;23.77;;;16.35;;
3299;SDS011;1662;49.310;8.134;2023-02-08T08:41:45;16.73;;;14.90;;
3299;SDS011;1662;49.310;8.134;2023-02-08T08:44:13;21.15;;;14.30;;
3299;SDS011;1662;49.310;8.134;2023-02-08T08:46:38;17.40;;;14.10;;
3299;SDS011;1662;49.310;8.134;2023-02-08T08:49:04;21.53;;;14.87;;
3299;SDS011;1662;49.310;8.134;2023-02-08T08:51:30;15.80;;;13.90;;
3299;SDS011;1662;49.310;8.134;2023-02-08T08:53:59;21.90;;;13.95;;
3299;SDS011;1662;49.310;8.134;2023-02-08T08:56:25;16.70;;;13.95;;
3299;SDS011;1662;49.310;8.134;2023-02-08T08:58:51;15.47;;;13.07;;
3299;SDS011;1662;49.310;8.134;2023-02-08T09:01:17;17.73;;;12.60;;
3299;SDS011;1662;49.310;8.134;2023-02-08T09:03:42;17.33;;;13.20;;
3299;SDS011;1662;49.310;8.134;2023-02-08T09:06:08;15.40;;;12.47;;
3299;SDS011;1662;49.310;8.134;2023-02-08T09:08:34;18.73;;;14.40;;
3299;SDS011;1662;49.310;8.134;2023-02-08T09:11:03;19.23;;;13.23;;
3299;SDS011;1662;49.310;8.134;2023-02-08T09:13:32;17.90;;;14.75;;
3299;SDS011;1662;49.310;8.134;2023-02-08T09:15:58;18.73;;;14.70;;
3299;SDS011;1662;49.310;8.134;2023-02-08T09:18:28;20.45;;;14.23;;
3299;SDS011;1662;49.310;8.134;2023-02-08T09:20:53;14.57;;;12.33;;
3299;SDS011;1662;49.310;8.134;2023-02-08T09:23:19;20.87;;;13.67;;
3299;SDS011;1662;49.310;8.134;2023-02-08T09:25:44;22.27;;;14.30;;
3299;SDS011;1662;49.310;8.134;2023-02-08T09:28:10;21.77;;;14.07;;
3299;SDS011;1662;49.310;8.134;2023-02-08T09:30:35;21.00;;;13.20;;
3299;SDS011;1662;49.310;8.134;2023-02-08T09:33:01;18.40;;;14.73;;
3299;SDS011;1662;49.310;8.134;2023-02-08T09:35:26;17.07;;;14.30;;
3299;SDS011;1662;49.310;8.134;2023-02-08T09:37:53;18.40;;;14.70;;
3299;SDS011;1662;49.310;8.134;2023-02-08T09:40:20;19.85;;;13.20;;
3299;SDS011;1662;49.310;8.134;2023-02-08T09:43:01;13.43;;;12.02;;
3299;SDS011;1662;49.310;8.134;2023-02-08T09:48:25;17.27;;;12.88;;
3299;SDS011;1662;49.310;8.134;2023-02-08T09:51:08;17.15;;;13.63;;
3299;SDS011;1662;49.310;8.134;2023-02-08T09:53:45;20.15;;;13.55;;
3299;SDS011;1662;49.310;8.134;2023-02-08T09:56:18;16.60;;;14.05;;
3299;SDS011;1662;49.310;8.134;2023-02-08T09:58:48;13.52;;;11.98;;
3299;SDS011;1662;49.310;8.134;2023-02-08T10:01:24;16.33;;;13.02;;
3299;SDS011;1662;49.310;8.134;2023-02-08T10:03:54;18.45;;;14.25;;
3299;SDS011;1662;49.310;8.134;2023-02-08T10:06:24;17.55;;;14.38;;
3299;SDS011;1662;49.310;8.134;2023-02-08T10:08:50;17.03;;;13.00;;
3299;SDS011;1662;49.310;8.134;2023-02-08T10:20:03;20.80;;;14.80;;
3299;SDS011;1662;49.310;8.134;2023-02-08T10:25:29;15.18;;;13.60;;
3299;SDS011;1662;49.310;8.134;2023-02-08T10:33:53;17.13;;;13.90;;
3299;SDS011;1662;49.310;8.134;2023-02-08T10:36:24;15.27;;;12.80;;
3299;SDS011;1662;49.310;8.134;2023-02-08T10:38:52;25.30;;;15.43;;
3299;SDS011;1662;49.310;8.134;2023-02-08T10:41:24;14.18;;;12.75;;
3299;SDS011;1662;49.310;8.134;2023-02-08T10:46:31;20.25;;;15.10;;
3299;SDS011;1662;49.310;8.134;2023-02-08T10:51:59;13.15;;;11.75;;
3299;SDS011;1662;49.310;8.134;2023-02-08T10:54:24;18.63;;;14.90;;
3299;SDS011;1662;49.310;8.134;2023-02-08T10:56:51;20.17;;;16.07;;
3299;SDS011;1662;49.310;8.134;2023-02-08T10:59:26;21.25;;;14.30;;
3299;SDS011;1662;49.310;8.134;2023-02-08T11:01:57;20.90;;;14.02;;
3299;SDS011;1662;49.310;8.134;2023-02-08T11:04:23;18.25;;;14.40;;
3299;SDS011;1662;49.310;8.134;2023-02-08T11:06:49;15.77;;;14.10;;
3299;SDS011;1662;49.310;8.134;2023-02-08T11:09:23;17.95;;;14.77;;
3299;SDS011;1662;49.310;8.134;2023-02-08T11:11:53;16.40;;;14.45;;
3299;SDS011;1662;49.310;8.134;2023-02-08T11:14:25;21.17;;;14.82;;
3299;SDS011;1662;49.310;8.134;2023-02-08T11:16:59;16.05;;;14.35;;
3299;SDS011;1662;49.310;8.134;2023-02-08T11:22:14;15.98;;;13.20;;
3299;SDS011;1662;49.310;8.134;2023-02-08T11:24:41;21.13;;;17.02;;
3299;SDS011;1662;49.310;8.134;2023-02-08T11:30:16;15.10;;;13.18;;
3299;SDS011;1662;49.310;8.134;2023-02-08T11:32:48;17.90;;;15.48;;
3299;SDS011;1662;49.310;8.134;2023-02-08T11:35:34;19.25;;;13.43;;
3299;SDS011;1662;49.310;8.134;2023-02-08T11:38:00;19.10;;;15.02;;
3299;SDS011;1662;49.310;8.134;2023-02-08T11:42:53;18.58;;;15.70;;
3299;SDS011;1662;49.310;8.134;2023-02-08T11:45:21;17.10;;;13.75;;
3299;SDS011;1662;49.310;8.134;2023-02-08T11:47:49;18.50;;;15.48;;
3299;SDS011;1662;49.310;8.134;2023-02-08T11:50:50;17.02;;;14.75;;
3299;SDS011;1662;49.310;8.134;2023-02-08T11:56:21;15.55;;;14.05;;
3299;SDS011;1662;49.310;8.134;2023-02-08T12:01:31;16.27;;;14.40;;
3299;SDS011;1662;49.310;8.134;2023-02-08T12:04:06;16.38;;;14.50;;
3299;SDS011;1662;49.310;8.134;2023-02-08T12:25:41;17.63;;;14.52;;
3299;SDS011;1662;49.310;8.134;2023-02-08T12:53:24;19.07;;;17.17;;
3299;SDS011;1662;49.310;8.134;2023-02-08T12:55:57;18.43;;;15.87;;
3299;SDS011;1662;49.310;8.134;2023-02-08T13:01:13;17.60;;;15.23;;
3299;SDS011;1662;49.310;8.134;2023-02-08T13:04:06;18.80;;;16.23;;
3299;SDS011;1662;49.310;8.134;2023-02-08T13:06:56;18.07;;;15.70;;
3299;SDS011;1662;49.310;8.134;2023-02-08T13:12:05;18.23;;;15.60;;
3299;SDS011;1662;49.310;8.134;2023-02-08T13:14:46;17.47;;;15.40;;
3299;SDS011;1662;49.310;8.134;2023-02-08T13:22:23;18.57;;;16.57;;
3299;SDS011;1662;49.310;8.134;2023-02-08T13:24:49;17.43;;;15.23;;
3299;SDS011;1662;49.310;8.134;2023-02-08T13:27:17;17.57;;;15.60;;
3299;SDS011;1662;49.310;8.134;2023-02-08T13:29:45;29.20;;;21.60;;
3299;SDS011;1662;49.310;8.134;2023-02-08T13:32:14;28.83;;;20.10;;
3299;SDS011;1662;49.310;8.134;2023-02-08T13:34:45;20.77;;;18.70;;
3299;SDS011;1662;49.310;8.134;2023-02-08T13:37:24;17.50;;;15.80;;
3299;SDS011;1662;49.310;8.134;2023-02-08T13:40:36;18.80;;;16.93;;
3299;SDS011;1662;49.310;8.134;2023-02-08T13:43:18;18.80;;;17.10;;
3299;SDS011;1662;49.310;8.134;2023-02-08T13:46:02;24.13;;;21.53;;
3299;SDS011;1662;49.310;8.134;2023-02-08T13:48:39;17.70;;;15.90;;
3299;SDS011;1662;49.310;8.134;2023-02-08T13:51:53;19.00;;;17.20;;
3299;SDS011;1662;49.310;8.134;2023-02-08T13:54:09;17.30;;;15.80;;
3299;SDS011;1662;49.310;8.134;2023-02-08T13:59:02;17.93;;;16.27;;
3299;SDS011;1662;49.310;8.134;2023-02-08T14:01:33;18.43;;;16.63;;
3299;SDS011;1662;49.310;8.134;2023-02-08T14:04:46;18.50;;;16.80;;
3299;SDS011;1662;49.310;8.134;2023-02-08T14:06:55;19.57;;;17.57;;
3299;SDS011;1662;49.310;8.134;2023-02-08T14:09:31;19.80;;;17.93;;
3299;SDS011;1662;49.310;8.134;2023-02-08T14:12:12;20.60;;;18.60;;
3299;SDS011;1662;49.310;8.134;2023-02-08T14:14:43;19.03;;;17.23;;
3299;SDS011;1662;49.310;8.134;2023-02-08T14:17:49;20.37;;;18.37;;
3299;SDS011;1662;49.310;8.134;2023-02-08T14:20:38;19.07;;;17.30;;
3299;SDS011;1662;49.310;8.134;2023-02-08T14:23:20;18.00;;;16.30;;
3299;SDS011;1662;49.310;8.134;2023-02-08T14:25:49;20.37;;;18.40;;
3299;SDS011;1662;49.310;8.134;2023-02-08T14:30:52;20.57;;;17.37;;
3299;SDS011;1662;49.310;8.134;2023-02-08T14:33:22;19.23;;;17.50;;
3299;SDS011;1662;49.310;8.134;2023-02-08T14:36:03;18.77;;;17.00;;
3299;SDS011;1662;49.310;8.134;2023-02-08T14:49:34;20.17;;;18.17;;
3299;SDS011;1662;49.310;8.134;2023-02-08T14:52:09;18.93;;;17.03;;
3299;SDS011;1662;49.310;8.134;2023-02-08T14:54:55;18.87;;;16.87;;
3299;SDS011;1662;49.310;8.134;2023-02-08T14:57:30;17.20;;;15.60;;
3299;SDS011;1662;49.310;8.134;2023-02-08T15:00:15;16.70;;;15.20;;
3299;SDS011;1662;49.310;8.134;2023-02-08T15:02:46;18.10;;;16.30;;
3299;SDS011;1662;49.310;8.134;2023-02-08T15:05:20;18.73;;;16.73;;
3299;SDS011;1662;49.310;8.134;2023-02-08T15:08:06;17.27;;;15.67;;
3299;SDS011;1662;49.310;8.134;2023-02-08T15:10:32;17.87;;;16.27;;
3299;SDS011;1662;49.310;8.134;2023-02-08T15:12:59;17.40;;;15.90;;
3299;SDS011;1662;49.310;8.134;2023-02-08T15:15:34;17.17;;;15.57;;
3299;SDS011;1662;49.310;8.134;2023-02-08T15:18:03;18.33;;;16.40;;
3299;SDS011;1662;49.310;8.134;2023-02-08T15:20:32;17.60;;;16.00;;
3299;SDS011;1662;49.310;8.134;2023-02-08T15:23:03;17.00;;;15.20;;
3299;SDS011;1662;49.310;8.134;2023-02-08T15:25:32;20.13;;;15.77;;
3299;SDS011;1662;49.310;8.134;2023-02-08T15:28:00;17.63;;;15.97;;
3299;SDS011;1662;49.310;8.134;2023-02-08T15:30:51;20.10;;;15.10;;
3299;SDS011;1662;49.310;8.134;2023-02-08T15:33:18;19.10;;;16.13;;
3299;SDS011;1662;49.310;8.134;2023-02-08T15:35:45;17.70;;;16.00;;
3299;SDS011;1662;49.310;8.134;2023-02-08T15:38:22;16.97;;;15.27;;
3299;SDS011;1662;49.310;8.134;2023-02-08T15:43:31;15.37;;;13.93;;
3299;SDS011;1662;49.310;8.134;2023-02-08T15:45:58;17.77;;;15.27;;
3299;SDS011;1662;49.310;8.134;2023-02-08T15:48:30;18.10;;;16.23;;
3299;SDS011;1662;49.310;8.134;2023-02-08T15:50:57;17.87;;;15.97;;
3299;SDS011;1662;49.310;8.134;2023-02-08T15:53:24;17.80;;;15.85;;
3299;SDS011;1662;49.310;8.134;2023-02-08T15:55:55;16.10;;;14.47;;
3299;SDS011;1662;49.310;8.134;2023-02-08T15:58:29;16.38;;;14.88;;
3299;SDS011;1662;49.310;8.134;2023-02-08T16:01:01;15.45;;;13.95;;
3299;SDS011;1662;49.310;8.134;2023-02-08T16:03:28;16.33;;;14.43;;
3299;SDS011;1662;49.310;8.134;2023-02-08T16:05:58;15.82;;;14.20;;
3299;SDS011;1662;49.310;8.134;2023-02-08T16:08:27;15.53;;;13.23;;
3299;SDS011;1662;49.310;8.134;2023-02-08T16:10:56;14.33;;;12.80;;
3299;SDS011;1662;49.310;8.134;2023-02-08T16:13:28;14.23;;;12.83;;
3299;SDS011;1662;49.310;8.134;2023-02-08T16:16:12;14.38;;;12.85;;
3299;SDS011;1662;49.310;8.134;2023-02-08T16:18:46;15.07;;;13.57;;
3299;SDS011;1662;49.310;8.134;2023-02-08T16:21:21;16.10;;;13.48;;
3299;SDS011;1662;49.310;8.134;2023-02-08T16:23:47;15.88;;;13.02;;
3299;SDS011;1662;49.310;8.134;2023-02-08T16:26:27;13.30;;;11.90;;
3299;SDS011;1662;49.310;8.134;2023-02-08T16:31:26;15.05;;;12.82;;
3299;SDS011;1662;49.310;8.134;2023-02-08T16:34:04;15.32;;;13.05;;
3299;SDS011;1662;49.310;8.134;2023-02-08T16:36:33;16.60;;;13.65;;
3299;SDS011;1662;49.310;8.134;2023-02-08T16:39:24;15.38;;;13.40;;
3299;SDS011;1662;49.310;8.134;2023-02-08T16:42:04;14.55;;;13.05;;
3299;SDS011;1662;49.310;8.134;2023-02-08T16:44:56;13.05;;;11.70;;
3299;SDS011;1662;49.310;8.134;2023-02-08T16:47:27;14.70;;;13.20;;
3299;SDS011;1662;49.310;8.134;2023-02-08T16:50:00;14.98;;;12.98;;
3299;SDS011;1662;49.310;8.134;2023-02-08T16:52:28;13.87;;;12.50;;
3299;SDS011;1662;49.310;8.134;2023-02-08T16:54:54;13.70;;;12.27;;
3299;SDS011;1662;49.310;8.134;2023-02-08T16:57:37;12.93;;;11.70;;
3299;SDS011;1662;49.310;8.134;2023-02-08T17:00:12;14.32;;;11.70;;
3299;SDS011;1662;49.310;8.134;2023-02-08T17:02:42;14.27;;;12.70;;
3299;SDS011;1662;49.310;8.134;2023-02-08T17:05:08;13.80;;;12.40;;
3299;SDS011;1662;49.310;8.134;2023-02-08T17:07:34;15.60;;;13.23;;
3299;SDS011;1662;49.310;8.134;2023-02-08T17:10:01;20.17;;;13.82;;
3299;SDS011;1662;49.310;8.134;2023-02-08T17:12:27;18.23;;;14.10;;
3299;SDS011;1662;49.310;8.134;2023-02-08T17:14:55;17.98;;;16.15;;
3299;SDS011;1662;49.310;8.134;2023-02-08T17:17:21;17.83;;;14.50;;
3299;SDS011;1662;49.310;8.134;2023-02-08T17:19:47;16.90;;;14.60;;
3299;SDS011;1662;49.310;8.134;2023-02-08T17:22:12;25.63;;;16.57;;
3299;SDS011;1662;49.310;8.134;2023-02-08T17:24:38;22.40;;;16.20;;
3299;SDS011;1662;49.310;8.134;2023-02-08T17:27:03;19.20;;;16.90;;
3299;SDS011;1662;49.310;8.134;2023-02-08T17:29:29;19.23;;;16.30;;
3299;SDS011;1662;49.310;8.134;2023-02-08T17:31:55;18.53;;;15.53;;
3299;SDS011;1662;49.310;8.134;2023-02-08T17:34:20;21.80;;;16.07;;
3299;SDS011;1662;49.310;8.134;2023-02-08T17:36:46;18.23;;;14.67;;
3299;SDS011;1662;49.310;8.134;2023-02-08T17:39:11;16.17;;;14.27;;
3299;SDS011;1662;49.310;8.134;2023-02-08T17:41:39;21.25;;;14.85;;